Logo AVAMET
Benvolgut visitant, si us plau, ingressa Recuperar contrasenya
AVAMET paisatges

Inforatge Benifairó de les Valls

Dades diàries. Acumulats / Últims 30 dies disponibles

Data Temperatura (°C) Humitat rel. (%) Pressió rel. (hPa) Vent (km/h) Precipitació
Mínima Mitjana Màxima Amplitud
tèrmica
Mínima Mitjana Màxima Mínima Mitjana Màxima Predom. Mitjana Ràfega
màxima
Total
(mm)
Índex-n
Mínima Mitjana Màxima Mínima Mitjana Màxima n
0 a 1
P0 max
mm 5'
Dades mensuals acumulades fins l'últim dia disponible
04/2020 9,6 10,8 12,1 13,5 15,8 17,3 18,8 9,2 51 77 91 1.007 1.013 1.019   5,2 29,0 12,0
Dades anuals acumulades fins l'últim dia disponible
2020 4,4 10,1 16,7 13,7 9,9 17,9 27,4 23,0 16 68 95 995 1.021 1.033   6,4 90,1 255,0
Últims 30 dies disponibles
04-04-2020 9,6     13,6     17,4 7,8 58 73 87 1.016 1.017 1.019 SSO 5,2 20,9 0,0
03-04-2020 10,3     13,3     17,2 6,9 51 73 91 1.012 1.014 1.017 ESE 5,5 24,1 0,0
02-04-2020 11,3     12,6     15,8 4,5 68 82 89 1.009 1.010 1.013 E 3,9 29,0 1,2
01-04-2020 12,1     14,5     18,8 6,7 62 78 90 1.007 1.009 1.011 WNW 6,3 29,0 10,8 0,36 0,80
31-03-2020 7,4     10,8     14,4 7,0 75 85 91 1.008 1.009 1.012 SO 7,8 33,8 30,6 0,35 1,30
30-03-2020 8,0     12,1     15,6 7,6 53 69 88 1.010 1.012 1.013 NE 4,2 20,9 2,8 0,20
29-03-2020 11,1     16,1     21,8 10,7 30 53 71 1.011 1.013 1.017 W 9,8 32,2 0,0
28-03-2020 7,4     12,1     16,8 9,4 45 61 77 1.015 1.016 1.017 W 6,3 30,6 0,0
27-03-2020 7,4     9,5     12,5 5,1 61 76 89 1.010 1.012 1.015 W 4,5 22,5 3,4 0,21 0,40
26-03-2020 7,2     10,6     15,1 7,9 44 70 86 1.005 1.008 1.012 W 6,3 37,0 1,0
25-03-2020 8,0     9,8     11,4 3,4 70 81 88 1.012 1.015 1.017 NE 3,9 25,7 4,0 0,36 0,60
24-03-2020 11,3     13,0     14,1 2,8 73 81 88 1.015 1.016 1.017 NE 13,4 43,5 0,2
23-03-2020 11,4     13,3     16,2 4,8 75 87 92 1.013 1.015 1.017 NE 6,0 32,2 73,6 0,60 16,20
22-03-2020 10,8     13,0     15,8 5,0 70 83 91 1.010 1.011 1.014 NE 4,8 22,5 5,6 0,32 0,40
21-03-2020 10,9     12,9     14,9 4,0 69 79 88 1.011 1.013 1.016 W 4,2 22,5 0,0
20-03-2020 12,3     13,6     15,1 2,8 72 80 87 1.016 1.017 1.019 NE 5,5 27,4 0,0
19-03-2020 10,7     13,1     16,6 5,9 72 82 90 1.019 1.021 1.024 E 4,7 22,5 0,0
18-03-2020 11,6     14,0     16,2 4,6 71 79 88 1.024 1.025 1.027 E 5,3 25,7 0,0
17-03-2020 12,2     13,4     14,6 2,4 82 91 94 1.018 1.023 1.028 NE 5,6 41,8 23,0 0,42 0,80
16-03-2020 10,9     13,3     14,1 3,2 80 89 93 1.010 1.012 1.018 E 4,8 30,6 10,6 0,51 1,40
15-03-2020 11,0     14,4     17,9 6,9 60 81 90 1.013 1.016 1.019 W 4,2 25,7 0,0
14-03-2020 11,5     14,8     18,1 6,6 55 74 88 1.017 1.018 1.020 SW 4,3 24,1 0,0
13-03-2020 11,7     14,8     18,7 7,0 61 77 93 1.017 1.018 1.020 E 5,1 29,0 0,0
12-03-2020 11,5     15,0     19,5 8,0 64 77 91 1.016 1.018 1.020 E 2,7 17,7 0,0
11-03-2020 11,8     16,7     22,2 10,4 48 61 73 1.020 1.021 1.022 E 3,1 16,1 0,0
10-03-2020 12,8     15,4     16,9 4,1 37 58 74 1.021 1.022 1.025 SE 7,9 30,6 0,0
09-03-2020 13,4     17,1     20,9 7,5 30 47 62 1.018 1.020 1.022 WNW 10,3 45,1 0,0
08-03-2020 11,6     15,4     19,3 7,7 38 52 66 1.019 1.021 1.023 WNW 7,1 38,6 0,0
07-03-2020 11,3     13,9     18,7 7,4 36 44 60 1.018 1.020 1.023 W 13,2 53,1 0,0
06-03-2020 9,7     14,6     18,4 8,7 22 39 61 1.010 1.012 1.019 WNW 14,0 69,2 0,0
Últims 13 mesos disponibles
03/2020 7,2 11,1 16,4 14,3 11,4 17,8 26,4 19,2 39 67 91 1.004 1.015 1.025 W 7,7 90,1 155,4
02/2020 7,9 10,8 16,7 15,0 14,3 19,9 27,4 19,5 37 66 86 1.011 1.024 1.031 W 5,5 53,1 2,2
01/2020 4,4 8,5 14,9 11,8 9,9 16,1 23,0 18,6 50 70 92 1.016 1.024 1.032 W 6,2 72,4 85,4
12/2019 5,9 11,3 17,6 14,3 12,9 18,1 24,9 19,0 40 66 90 1.001 1.018 1.032 W 6,9 77,2 70,4
11/2019 7,1 11,5 16,8 15,2 15,9 19,3 23,6 16,5 43 56 73 997 1.010 1.017 W 10,3 77,2 2,4
Tots els anys disponibles
Temperatura (°C)
Humitat relativa (%)
Velocitat del vent i ràfega màxima (km/h)
Direcció del vent (°)
Pressió (hPa)
Precipitació (mm)
Nota sobre les dades: s'avisa a l'usuari de la provisionalitat i no oficialitat d'aquestes dades
Logo AVAMET blanc
Web allotjada a Sollutia
Llicència de Creative CommonsLa web d'AVAMET i els seus continguts estan subjectes a una llicència de
Reconeixement - No Comercial - Compartir igual
Últimes estacions:  Altea - Com. Regants (Soci), Almoines (Inforatge), Beniparrell (Inforatge), Albal (Inforatge), Almussafes - Parc Industrial (Inforatge), La Vilavella (Soci), la Serratella (soci) - - -